createdAt,value
2022-11-12T00:00:06.119Z,11.80
2022-11-12T00:02:40.229Z,11.80
2022-11-12T00:05:19.693Z,11.80
2022-11-12T00:07:53.889Z,11.80
2022-11-12T00:10:24.015Z,11.70
2022-11-12T00:12:55.773Z,11.70
2022-11-12T00:15:24.605Z,11.70
2022-11-12T00:17:54.529Z,11.70
2022-11-12T00:20:23.830Z,11.70
2022-11-12T00:22:55.083Z,11.70
2022-11-12T00:25:24.790Z,11.80
2022-11-12T00:27:53.677Z,11.80
2022-11-12T00:30:22.819Z,11.80
2022-11-12T00:32:55.055Z,11.80
2022-11-12T00:35:25.359Z,11.80
2022-11-12T00:37:59.766Z,11.80
2022-11-12T00:40:33.433Z,11.80
2022-11-12T00:43:06.778Z,11.80
2022-11-12T00:45:36.451Z,11.80
2022-11-12T00:48:30.524Z,11.80
2022-11-12T00:51:09.640Z,11.80
2022-11-12T00:53:46.991Z,11.80
2022-11-12T00:56:30.555Z,11.80
2022-11-12T00:59:06.793Z,11.80
2022-11-12T01:01:40.632Z,11.80
2022-11-12T01:04:16.466Z,11.80
2022-11-12T01:06:45.724Z,11.80
2022-11-12T01:09:19.071Z,11.80
2022-11-12T01:11:48.442Z,11.70
2022-11-12T01:14:22.663Z,11.70
2022-11-12T01:16:52.715Z,11.70
2022-11-12T01:19:27.120Z,11.70
2022-11-12T01:22:04.176Z,11.70
2022-11-12T01:24:36.551Z,11.70
2022-11-12T01:27:10.267Z,11.70
2022-11-12T01:29:41.965Z,11.70
2022-11-12T01:32:18.163Z,11.70
2022-11-12T01:34:55.254Z,11.70
2022-11-12T01:37:26.521Z,11.70
2022-11-12T01:40:04.387Z,11.80
2022-11-12T01:42:35.342Z,11.70
2022-11-12T01:45:20.407Z,11.70
2022-11-12T01:47:54.861Z,11.70
2022-11-12T01:50:38.935Z,11.70
2022-11-12T01:53:15.564Z,11.70
2022-11-12T01:55:53.297Z,11.70
2022-11-12T01:58:37.035Z,11.70
2022-11-12T02:01:09.708Z,11.70
2022-11-12T02:03:38.495Z,11.60
2022-11-12T02:06:14.350Z,11.60
2022-11-12T02:08:44.899Z,11.60
2022-11-12T02:11:23.701Z,11.50
2022-11-12T02:14:12.396Z,11.60
2022-11-12T02:16:51.591Z,11.50
2022-11-12T02:19:21.856Z,11.40
2022-11-12T02:22:02.486Z,11.30
2022-11-12T02:24:38.188Z,11.20
2022-11-12T02:27:15.065Z,11.10
2022-11-12T02:29:50.073Z,11.00
2022-11-12T02:32:28.245Z,11.00
2022-11-12T02:34:58.788Z,11.00
2022-11-12T02:37:36.163Z,11.00
2022-11-12T02:40:10.086Z,11.00
2022-11-12T02:42:42.443Z,11.00
2022-11-12T02:45:13.425Z,11.00
2022-11-12T02:47:51.921Z,10.90
2022-11-12T02:50:21.636Z,10.80
2022-11-12T02:52:51.932Z,10.70
2022-11-12T02:55:24.414Z,10.70
2022-11-12T02:57:53.762Z,10.80
2022-11-12T03:00:25.283Z,10.80
2022-11-12T03:03:02.786Z,10.90
2022-11-12T03:05:34.986Z,10.90
2022-11-12T03:08:10.348Z,10.80
2022-11-12T03:10:43.975Z,10.80
2022-11-12T03:13:16.261Z,10.80
2022-11-12T03:15:45.544Z,10.80
2022-11-12T03:18:18.524Z,10.80
2022-11-12T03:20:53.743Z,10.80
2022-11-12T03:23:29.234Z,10.90
2022-11-12T03:26:00.773Z,10.90
2022-11-12T03:28:30.067Z,10.90
2022-11-12T03:31:01.742Z,10.90
2022-11-12T03:33:39.984Z,10.90
2022-11-12T03:36:19.456Z,10.90
2022-11-12T03:38:50.746Z,10.90
2022-11-12T03:41:20.404Z,10.80
2022-11-12T03:43:55.245Z,10.80
2022-11-12T03:46:34.065Z,10.90
2022-11-12T03:49:05.691Z,10.90
2022-11-12T03:51:34.842Z,11.00
2022-11-12T03:54:14.696Z,11.00
2022-11-12T03:56:50.237Z,11.00
2022-11-12T03:59:25.687Z,11.00
2022-11-12T04:02:03.761Z,11.00
2022-11-12T04:04:46.587Z,11.00
2022-11-12T04:07:36.401Z,11.00
2022-11-12T04:10:20.288Z,11.10
2022-11-12T04:13:08.890Z,11.10
2022-11-12T04:15:49.548Z,11.10
2022-11-12T04:18:44.951Z,11.10
2022-11-12T04:21:43.532Z,11.10
2022-11-12T04:24:36.279Z,11.20
2022-11-12T04:27:08.930Z,11.20
2022-11-12T04:29:58.047Z,11.20
2022-11-12T04:32:34.939Z,11.20
2022-11-12T04:35:06.385Z,11.20
2022-11-12T04:37:52.770Z,11.20
2022-11-12T04:40:49.479Z,11.20
2022-11-12T04:43:39.615Z,11.20
2022-11-12T04:46:08.971Z,11.20
2022-11-12T04:48:46.570Z,11.10
2022-11-12T04:51:48.944Z,11.10
2022-11-12T04:54:32.215Z,11.20
2022-11-12T04:57:02.928Z,11.20
2022-11-12T04:59:36.999Z,11.20
2022-11-12T05:02:09.078Z,11.20
2022-11-12T05:04:43.807Z,11.20
2022-11-12T05:07:13.468Z,11.20
2022-11-12T05:09:49.166Z,11.20
2022-11-12T05:12:31.463Z,11.20
2022-11-12T05:15:05.949Z,11.20
2022-11-12T05:17:35.539Z,11.30
2022-11-12T05:20:05.147Z,11.30
2022-11-12T05:22:47.888Z,11.30
2022-11-12T05:25:27.358Z,11.30
2022-11-12T05:27:56.419Z,11.30
2022-11-12T05:30:27.787Z,11.30
2022-11-12T05:32:57.338Z,11.30
2022-11-12T05:35:28.106Z,11.30
2022-11-12T05:38:07.095Z,11.30
2022-11-12T05:40:38.767Z,11.30
2022-11-12T05:43:16.737Z,11.30
2022-11-12T05:45:49.679Z,11.30
2022-11-12T05:48:23.973Z,11.30
2022-11-12T05:51:12.847Z,11.30
2022-11-12T05:53:49.955Z,11.30
2022-11-12T05:56:19.023Z,11.30
2022-11-12T05:58:48.758Z,11.30
2022-11-12T06:01:19.490Z,11.30
2022-11-12T06:03:50.745Z,11.30
2022-11-12T06:06:25.802Z,11.30
2022-11-12T06:08:57.473Z,11.40
2022-11-12T06:11:26.383Z,11.40
2022-11-12T06:14:03.894Z,11.40
2022-11-12T06:16:37.703Z,11.40
2022-11-12T06:19:07.673Z,11.40
2022-11-12T06:21:41.760Z,11.40
2022-11-12T06:24:14.361Z,11.40
2022-11-12T06:26:43.565Z,11.40
2022-11-12T06:29:14.535Z,11.50
2022-11-12T06:31:47.612Z,11.50
2022-11-12T06:34:16.765Z,11.50
2022-11-12T06:36:53.209Z,11.50
2022-11-12T06:39:27.588Z,11.50
2022-11-12T06:41:58.971Z,11.50
2022-11-12T06:44:31.407Z,11.50
2022-11-12T06:47:04.885Z,11.50
2022-11-12T06:49:39.315Z,11.60
2022-11-12T06:52:11.117Z,11.60
2022-11-12T06:54:46.529Z,11.60
2022-11-12T06:57:16.144Z,11.60
2022-11-12T06:59:49.573Z,11.60
2022-11-12T07:02:20.454Z,11.60
2022-11-12T07:04:49.437Z,11.60
2022-11-12T07:07:21.780Z,11.60
2022-11-12T07:09:51.114Z,11.60
2022-11-12T07:12:24.725Z,11.60
2022-11-12T07:14:57.014Z,11.60
2022-11-12T07:17:35.214Z,11.60
2022-11-12T07:20:05.975Z,11.70
2022-11-12T07:22:35.921Z,11.70
2022-11-12T07:25:06.339Z,11.70
2022-11-12T07:27:35.598Z,11.70
2022-11-12T07:30:07.591Z,11.70
2022-11-12T07:32:43.377Z,11.80
2022-11-12T07:35:13.827Z,11.80
2022-11-12T07:37:43.026Z,11.80
2022-11-12T07:40:13.539Z,11.80
2022-11-12T07:42:42.557Z,11.80
2022-11-12T07:45:13.299Z,11.80
2022-11-12T07:47:44.327Z,11.80
2022-11-12T07:50:15.519Z,11.80
2022-11-12T07:52:46.616Z,11.80
2022-11-12T07:55:16.850Z,11.90
2022-11-12T07:57:46.316Z,12.00
2022-11-12T08:00:17.290Z,12.10
2022-11-12T08:02:47.858Z,12.30
2022-11-12T08:05:21.314Z,12.50
2022-11-12T08:07:51.153Z,12.60
2022-11-12T08:10:21.542Z,12.70
2022-11-12T08:12:53.113Z,12.70
2022-11-12T08:15:32.576Z,12.80
2022-11-12T08:18:06.463Z,12.80
2022-11-12T08:20:35.408Z,12.80
2022-11-12T08:23:04.729Z,12.80
2022-11-12T08:25:33.904Z,13.00
2022-11-12T08:28:02.866Z,13.00
2022-11-12T08:30:32.381Z,13.10
2022-11-12T08:33:07.103Z,13.10
2022-11-12T08:35:40.307Z,13.00
2022-11-12T08:38:10.694Z,13.10
2022-11-12T08:40:40.173Z,13.10
2022-11-12T08:43:17.724Z,13.00
2022-11-12T08:45:50.580Z,12.90
2022-11-12T08:48:25.085Z,12.90
2022-11-12T08:50:54.665Z,13.00
2022-11-12T08:53:26.199Z,12.90
2022-11-12T08:55:56.490Z,12.80
2022-11-12T08:58:27.232Z,12.80
2022-11-12T09:00:58.441Z,12.70
2022-11-12T09:03:29.112Z,12.70
2022-11-12T09:05:58.542Z,12.70
2022-11-12T09:08:27.692Z,12.60
2022-11-12T09:11:05.586Z,12.60
2022-11-12T09:13:35.742Z,12.60
2022-11-12T09:16:11.246Z,12.60
2022-11-12T09:18:43.696Z,12.60
2022-11-12T09:21:14.455Z,12.80
2022-11-12T09:23:43.649Z,12.80
2022-11-12T09:26:15.546Z,12.80
2022-11-12T09:28:45.006Z,12.90
2022-11-12T09:31:16.206Z,13.00
2022-11-12T09:33:47.029Z,13.10
2022-11-12T09:36:19.551Z,13.20
2022-11-12T09:38:48.515Z,13.30
2022-11-12T09:41:30.201Z,13.30
2022-11-12T09:44:04.593Z,13.40
2022-11-12T09:46:45.236Z,13.60
2022-11-12T09:49:24.723Z,13.50
2022-11-12T09:52:01.564Z,13.50
2022-11-12T09:54:35.098Z,13.40
2022-11-12T09:57:04.884Z,13.20
2022-11-12T09:59:43.584Z,13.20
2022-11-12T10:02:29.721Z,13.20
2022-11-12T10:05:19.621Z,13.30
2022-11-12T10:08:21.455Z,13.30
2022-11-12T10:11:03.125Z,13.40
2022-11-12T10:13:58.531Z,13.50
2022-11-12T10:16:51.833Z,13.40
2022-11-12T10:19:55.654Z,13.40
2022-11-12T10:22:43.990Z,13.30
2022-11-12T10:25:20.618Z,13.40
2022-11-12T10:27:52.123Z,13.40
2022-11-12T10:30:25.095Z,13.30
2022-11-12T10:32:54.780Z,13.30
2022-11-12T10:35:26.081Z,13.30
2022-11-12T10:38:04.294Z,13.50
2022-11-12T10:40:37.388Z,13.50
2022-11-12T10:43:21.687Z,13.40
2022-11-12T10:45:52.362Z,13.20
2022-11-12T10:48:34.541Z,13.30
2022-11-12T10:51:20.831Z,13.40
2022-11-12T10:53:54.106Z,13.50
2022-11-12T10:56:30.678Z,13.50
2022-11-12T10:59:19.937Z,13.90
2022-11-12T11:01:58.360Z,14.10
2022-11-12T11:04:40.007Z,14.20
2022-11-12T11:07:22.804Z,14.70
2022-11-12T11:09:58.510Z,14.70
2022-11-12T11:12:29.966Z,14.70
2022-11-12T11:15:10.362Z,14.60
2022-11-12T11:17:40.345Z,14.30
2022-11-12T11:20:27.385Z,14.40
2022-11-12T11:23:02.821Z,14.40
2022-11-12T11:25:38.636Z,14.50
2022-11-12T11:28:33.258Z,14.50
2022-11-12T11:31:18.597Z,14.40
2022-11-12T11:33:57.375Z,14.40
2022-11-12T11:36:42.247Z,14.30
2022-11-12T11:39:24.342Z,14.40
2022-11-12T11:42:14.856Z,14.50
2022-11-12T11:44:54.348Z,14.60
2022-11-12T11:47:59.872Z,14.90
2022-11-12T11:50:31.003Z,15.20
2022-11-12T11:53:21.705Z,15.40
2022-11-12T11:55:58.866Z,15.60
2022-11-12T11:59:01.812Z,15.80
2022-11-12T12:01:50.684Z,16.00
2022-11-12T12:04:44.199Z,16.30
2022-11-12T12:07:31.010Z,16.50
2022-11-12T12:10:18.585Z,16.30
2022-11-12T12:13:09.935Z,16.10
2022-11-12T12:16:03.091Z,15.90
2022-11-12T12:18:46.111Z,15.90
2022-11-12T12:21:22.219Z,15.70
2022-11-12T12:23:56.830Z,15.60
2022-11-12T12:26:32.395Z,15.70
2022-11-12T12:29:13.134Z,15.60
2022-11-12T12:31:52.495Z,15.60
2022-11-12T12:34:28.254Z,15.50
2022-11-12T12:37:07.410Z,15.30
2022-11-12T12:39:49.669Z,15.30
2022-11-12T12:42:27.980Z,15.30
2022-11-12T12:45:05.396Z,15.20
2022-11-12T12:47:44.616Z,15.30
2022-11-12T12:50:17.327Z,15.40
2022-11-12T12:53:05.618Z,15.40
2022-11-12T12:55:42.945Z,15.40
2022-11-12T12:58:28.992Z,15.20
2022-11-12T13:01:05.045Z,15.20
2022-11-12T13:03:59.146Z,15.00
2022-11-12T13:06:33.677Z,15.00
2022-11-12T13:09:08.384Z,14.80
2022-11-12T13:12:14.540Z,14.90
2022-11-12T13:15:16.853Z,14.90
2022-11-12T13:17:52.841Z,15.00
2022-11-12T13:20:43.454Z,15.00
2022-11-12T13:24:05.483Z,14.90
2022-11-12T13:26:57.626Z,14.90
2022-11-12T13:29:49.236Z,14.70
2022-11-12T13:32:41.978Z,14.50
2022-11-12T13:35:34.321Z,14.40
2022-11-12T13:38:15.955Z,14.30
2022-11-12T13:40:51.274Z,14.20
2022-11-12T13:43:40.396Z,13.90
2022-11-12T13:46:29.111Z,13.70
2022-11-12T13:49:03.855Z,13.60
2022-11-12T13:51:43.627Z,13.50
2022-11-12T13:54:44.367Z,13.50
2022-11-12T13:57:27.902Z,13.30
2022-11-12T14:00:28.281Z,13.20
2022-11-12T14:03:02.599Z,13.00
2022-11-12T14:05:37.431Z,12.70
2022-11-12T14:08:49.467Z,12.50
2022-11-12T14:11:49.863Z,12.40
2022-11-12T14:14:37.083Z,12.10
2022-11-12T14:17:27.524Z,12.00
2022-11-12T14:20:26.600Z,11.90
2022-11-12T14:22:56.303Z,11.70
2022-11-12T14:25:28.487Z,11.60
2022-11-12T14:27:59.351Z,11.50
2022-11-12T14:30:32.214Z,11.50
2022-11-12T14:33:10.420Z,11.40
2022-11-12T14:35:42.094Z,11.30
2022-11-12T14:38:20.322Z,11.20
2022-11-12T14:40:54.183Z,11.10
2022-11-12T14:43:38.105Z,11.10
2022-11-12T14:46:10.393Z,11.00
2022-11-12T14:48:52.779Z,10.90
2022-11-12T14:51:23.867Z,10.80
2022-11-12T14:54:01.739Z,10.80
2022-11-12T14:56:38.445Z,10.60
2022-11-12T14:59:13.041Z,10.50
2022-11-12T15:05:01.408Z,10.30
2022-11-12T15:07:35.442Z,10.20
2022-11-12T15:10:33.419Z,10.10
2022-11-12T15:13:07.115Z,10.00
2022-11-12T15:15:41.799Z,9.80
2022-11-12T15:18:20.289Z,9.70
2022-11-12T15:21:09.494Z,9.70
2022-11-12T15:23:38.677Z,9.60
2022-11-12T15:26:24.817Z,9.60
2022-11-12T15:29:15.594Z,9.50
2022-11-12T15:31:49.932Z,9.30
2022-11-12T15:34:49.948Z,9.10
2022-11-12T15:37:29.554Z,9.00
2022-11-12T15:40:10.908Z,8.90
2022-11-12T15:42:43.982Z,8.80
2022-11-12T15:45:19.366Z,8.80
2022-11-12T15:47:50.690Z,8.80
2022-11-12T15:50:22.867Z,8.70
2022-11-12T15:52:53.754Z,8.70
2022-11-12T15:55:22.846Z,8.60
2022-11-12T15:57:54.527Z,8.50
2022-11-12T16:00:33.017Z,8.50
2022-11-12T16:03:14.134Z,8.50
2022-11-12T16:05:43.282Z,8.50
2022-11-12T16:08:14.606Z,8.50
2022-11-12T16:10:46.964Z,8.60
2022-11-12T16:13:22.583Z,8.70
2022-11-12T16:15:53.273Z,8.80
2022-11-12T16:18:25.232Z,8.80
2022-11-12T16:20:54.275Z,8.90
2022-11-12T16:23:23.807Z,9.00
2022-11-12T16:25:53.648Z,9.10
2022-11-12T16:28:22.833Z,9.10
2022-11-12T16:30:52.717Z,9.10
2022-11-12T16:33:24.583Z,9.10
2022-11-12T16:35:54.068Z,9.10
2022-11-12T16:38:23.728Z,9.10
2022-11-12T16:40:56.410Z,9.20
2022-11-12T16:43:26.926Z,9.20
2022-11-12T16:45:56.149Z,9.30
2022-11-12T16:48:27.390Z,9.30
2022-11-12T16:50:56.077Z,9.40
2022-11-12T16:53:25.984Z,9.40
2022-11-12T16:55:55.383Z,9.40
2022-11-12T16:58:27.975Z,9.40
2022-11-12T17:00:57.034Z,9.50
2022-11-12T17:03:30.213Z,9.50
2022-11-12T17:06:01.464Z,9.40
2022-11-12T17:08:34.114Z,9.50
2022-11-12T17:11:10.513Z,9.50
2022-11-12T17:13:41.589Z,9.50
2022-11-12T17:16:14.474Z,9.50
2022-11-12T17:18:44.686Z,9.50
2022-11-12T17:21:17.327Z,9.50
2022-11-12T17:23:46.644Z,9.60
2022-11-12T17:26:22.019Z,9.60
2022-11-12T17:28:57.096Z,9.60
2022-11-12T17:31:29.242Z,9.60
2022-11-12T17:34:02.613Z,9.60
2022-11-12T17:36:32.281Z,9.60
2022-11-12T17:39:02.806Z,9.60
2022-11-12T17:41:32.472Z,9.70
2022-11-12T17:44:03.979Z,9.60
2022-11-12T17:46:36.043Z,9.70
2022-11-12T17:49:09.328Z,9.70
2022-11-12T17:51:38.956Z,9.70
2022-11-12T17:54:08.899Z,9.80
2022-11-12T17:56:38.352Z,9.80
2022-11-12T17:59:07.231Z,9.80
2022-11-12T18:01:38.159Z,9.70
2022-11-12T18:04:12.982Z,9.70
2022-11-12T18:06:42.061Z,9.60
2022-11-12T18:09:16.127Z,9.60
2022-11-12T18:11:48.572Z,9.50
2022-11-12T18:14:17.741Z,9.40
2022-11-12T18:16:50.816Z,9.40
2022-11-12T18:19:21.089Z,9.40
2022-11-12T18:21:53.243Z,9.40
2022-11-12T18:24:22.168Z,9.30
2022-11-12T18:26:51.534Z,9.30
2022-11-12T18:29:22.746Z,9.10
2022-11-12T18:31:51.386Z,8.80
2022-11-12T18:34:22.482Z,8.80
2022-11-12T18:36:51.897Z,8.80
2022-11-12T18:39:23.624Z,8.60
2022-11-12T18:41:56.240Z,8.40
2022-11-12T18:44:26.367Z,8.30
2022-11-12T18:46:56.209Z,8.10
2022-11-12T18:49:29.852Z,8.00
2022-11-12T18:51:58.918Z,7.90
2022-11-12T18:54:29.942Z,7.70
2022-11-12T18:56:59.335Z,7.50
2022-11-12T18:59:33.096Z,7.30
2022-11-12T19:02:02.461Z,7.20
2022-11-12T19:04:33.000Z,7.30
2022-11-12T19:07:02.462Z,7.20
2022-11-12T19:09:32.856Z,7.10
2022-11-12T19:12:01.881Z,7.00
2022-11-12T19:14:32.696Z,7.00
2022-11-12T19:17:01.566Z,6.90
2022-11-12T19:19:32.045Z,6.80
2022-11-12T19:22:01.303Z,6.70
2022-11-12T19:24:31.971Z,6.60
2022-11-12T19:27:00.895Z,6.80
2022-11-12T19:29:31.045Z,6.80
2022-11-12T19:32:01.713Z,6.70
2022-11-12T19:34:33.082Z,6.50
2022-11-12T19:37:31.795Z,6.50
2022-11-12T19:39:58.683Z,6.40
2022-11-12T19:42:28.398Z,6.50
2022-11-12T19:44:57.743Z,6.50
2022-11-12T19:47:26.783Z,6.30
2022-11-12T19:49:57.701Z,6.10
2022-11-12T19:52:30.030Z,6.00
2022-11-12T19:54:59.417Z,6.10
2022-11-12T19:57:31.662Z,6.20
2022-11-12T20:00:02.823Z,6.00
2022-11-12T20:02:33.496Z,5.90
2022-11-12T20:05:05.441Z,6.00
2022-11-12T20:07:36.863Z,5.70
2022-11-12T20:10:07.070Z,5.80
2022-11-12T20:12:42.304Z,5.60
2022-11-12T20:15:16.033Z,5.80
2022-11-12T20:17:48.102Z,5.80
2022-11-12T20:20:19.399Z,5.70
2022-11-12T20:22:48.547Z,5.70
2022-11-12T20:25:17.743Z,5.60
2022-11-12T20:27:47.243Z,5.30
2022-11-12T20:30:16.367Z,5.30
2022-11-12T20:32:45.938Z,5.20
2022-11-12T20:35:20.956Z,5.30
2022-11-12T20:37:56.255Z,5.30
2022-11-12T20:40:28.599Z,5.40
2022-11-12T20:42:57.630Z,5.40
2022-11-12T20:45:27.265Z,5.40
2022-11-12T20:47:57.843Z,5.30
2022-11-12T20:50:30.240Z,5.30
2022-11-12T20:53:00.803Z,5.20
2022-11-12T20:55:32.542Z,5.00
2022-11-12T20:58:04.951Z,5.00
2022-11-12T21:00:39.077Z,4.90
2022-11-12T21:03:07.766Z,4.80
2022-11-12T21:05:40.819Z,4.70
2022-11-12T21:08:14.736Z,4.60
2022-11-12T21:10:51.320Z,4.60
2022-11-12T21:13:20.714Z,4.60
2022-11-12T21:15:50.731Z,4.50
2022-11-12T21:18:20.239Z,4.40
2022-11-12T21:20:52.781Z,4.40
2022-11-12T21:23:25.772Z,4.70
2022-11-12T21:25:54.961Z,4.70
2022-11-12T21:28:23.834Z,4.60
2022-11-12T21:30:53.212Z,4.50
2022-11-12T21:33:22.516Z,4.50
2022-11-12T21:35:54.404Z,4.40
2022-11-12T21:38:26.492Z,4.40
2022-11-12T21:41:08.171Z,4.40
2022-11-12T21:43:39.602Z,4.40
2022-11-12T21:46:10.633Z,4.20
2022-11-12T21:48:40.052Z,4.20
2022-11-12T21:51:13.199Z,4.30
2022-11-12T21:53:45.223Z,4.40
2022-11-12T21:56:17.862Z,4.60
2022-11-12T21:58:46.937Z,4.70
2022-11-12T22:01:20.931Z,4.90
2022-11-12T22:03:52.868Z,5.00
2022-11-12T22:06:25.694Z,5.10
2022-11-12T22:08:59.820Z,5.10
2022-11-12T22:11:30.204Z,5.00
2022-11-12T22:13:59.087Z,4.90
2022-11-12T22:16:30.797Z,4.90
2022-11-12T22:19:01.435Z,4.90
2022-11-12T22:21:39.657Z,5.00
2022-11-12T22:24:12.767Z,5.00
2022-11-12T22:26:42.262Z,5.00
2022-11-12T22:29:11.063Z,4.80
2022-11-12T22:31:40.772Z,4.70
2022-11-12T22:34:11.663Z,4.70
2022-11-12T22:36:40.786Z,4.50
2022-11-12T22:39:11.292Z,4.40
2022-11-12T22:41:40.275Z,4.20
2022-11-12T22:44:09.739Z,4.20
2022-11-12T22:46:39.736Z,4.40
2022-11-12T22:49:08.914Z,4.50
2022-11-12T22:51:38.040Z,4.60
2022-11-12T22:54:10.278Z,4.70
2022-11-12T22:56:41.302Z,4.70
2022-11-12T22:59:12.807Z,4.60
2022-11-12T23:01:42.141Z,4.60
2022-11-12T23:04:14.249Z,4.70
2022-11-12T23:06:43.394Z,4.80
2022-11-12T23:09:17.692Z,4.80
2022-11-12T23:11:47.956Z,5.00
2022-11-12T23:14:20.096Z,5.20
2022-11-12T23:16:51.194Z,5.30
2022-11-12T23:19:20.473Z,5.00
2022-11-12T23:21:50.267Z,4.80
2022-11-12T23:24:19.542Z,4.80
2022-11-12T23:26:52.555Z,4.80
2022-11-12T23:29:21.510Z,4.80
2022-11-12T23:31:51.107Z,4.70
2022-11-12T23:34:20.792Z,4.70
2022-11-12T23:36:49.517Z,4.70
2022-11-12T23:39:18.669Z,4.90
2022-11-12T23:41:49.547Z,4.80
2022-11-12T23:44:18.791Z,4.90
2022-11-12T23:46:48.304Z,5.00
2022-11-12T23:49:19.079Z,5.10
2022-11-12T23:51:48.144Z,5.10
2022-11-12T23:54:24.207Z,5.00
2022-11-12T23:56:55.034Z,4.90
2022-11-12T23:59:24.335Z,4.80
